createdAt,value
2017-02-15T00:00:03.003Z,1031.29
2017-02-15T00:05:03.518Z,1031.28
2017-02-15T00:10:03.669Z,1031.19
2017-02-15T00:15:03.551Z,1031.18
2017-02-15T00:20:03.610Z,1031.2
2017-02-15T00:25:03.400Z,1031.15
2017-02-15T00:30:03.314Z,1031.13
2017-02-15T00:35:18.456Z,1031.18
2017-02-15T00:40:03.429Z,1031.16
2017-02-15T00:45:03.036Z,1031.21
2017-02-15T00:50:03.273Z,1031.22
2017-02-15T00:55:03.393Z,1031.3
2017-02-15T01:00:03.110Z,1031.37
2017-02-15T01:05:03.276Z,1031.4
2017-02-15T01:10:03.242Z,1031.44
2017-02-15T01:15:03.328Z,1031.47
2017-02-15T01:20:03.222Z,1031.53
2017-02-15T01:25:02.949Z,1031.65
2017-02-15T01:30:03.588Z,1031.68
2017-02-15T01:35:03.398Z,1031.7
2017-02-15T01:40:03.605Z,1031.68
2017-02-15T01:45:03.631Z,1031.72
2017-02-15T01:50:03.639Z,1031.61
2017-02-15T01:55:03.629Z,1031.61
2017-02-15T02:00:03.670Z,1031.72
2017-02-15T02:05:03.714Z,1031.71
2017-02-15T02:10:02.774Z,1031.61
2017-02-15T02:15:02.825Z,1031.71
2017-02-15T02:20:02.743Z,1031.75
2017-02-15T02:25:02.741Z,1031.77
2017-02-15T02:30:02.733Z,1031.75
2017-02-15T02:35:03.713Z,1031.71
2017-02-15T02:40:03.571Z,1031.72
2017-02-15T02:45:03.479Z,1031.73
2017-02-15T02:50:03.258Z,1031.76
2017-02-15T02:55:03.239Z,1031.72
2017-02-15T03:00:03.340Z,1031.69
2017-02-15T03:05:03.764Z,1031.73
2017-02-15T03:10:03.664Z,1031.72
2017-02-15T03:15:03.653Z,1031.86
2017-02-15T03:20:03.571Z,1031.84
2017-02-15T03:25:03.546Z,1031.84
2017-02-15T03:30:03.633Z,1031.84
2017-02-15T03:35:03.381Z,1031.89
2017-02-15T03:40:03.318Z,1031.96
2017-02-15T03:45:03.049Z,1031.91
2017-02-15T03:50:02.707Z,1031.95
2017-02-15T03:55:03.705Z,1032.03
2017-02-15T04:00:03.572Z,1032
2017-02-15T04:05:03.418Z,1032.06
2017-02-15T04:10:03.399Z,1031.99
2017-02-15T04:15:03.376Z,1032.01
2017-02-15T04:20:03.097Z,1031.98
2017-02-15T04:25:02.935Z,1032.01
2017-02-15T04:30:02.988Z,1031.97
2017-02-15T04:35:02.886Z,1031.99
2017-02-15T04:40:03.643Z,1031.97
2017-02-15T04:45:03.664Z,1032.06
2017-02-15T04:50:02.831Z,1032.08
2017-02-15T04:55:04.091Z,1032.07
2017-02-15T05:00:03.039Z,1032
2017-02-15T05:05:02.780Z,1032.01
2017-02-15T05:10:02.746Z,1032.12
2017-02-15T05:15:03.657Z,1032.12
2017-02-15T05:20:03.678Z,1032.13
2017-02-15T05:25:03.780Z,1032.17
2017-02-15T05:30:03.483Z,1032.14
2017-02-15T05:35:03.225Z,1032.14
2017-02-15T05:40:03.144Z,1032.15
2017-02-15T05:45:03.515Z,1032.2
2017-02-15T05:50:03.657Z,1032.24
2017-02-15T05:55:02.753Z,1032.25
2017-02-15T06:00:03.822Z,1032.15
2017-02-15T06:05:02.836Z,1032.15
2017-02-15T06:10:02.755Z,1032.31
2017-02-15T06:15:03.454Z,1032.3
2017-02-15T06:20:03.515Z,1032.36
2017-02-15T06:25:03.344Z,1032.4
2017-02-15T06:30:03.264Z,1032.32
2017-02-15T06:35:03.321Z,1032.31
2017-02-15T06:40:03.303Z,1032.44
2017-02-15T06:45:03.009Z,1032.39
2017-02-15T06:50:03.137Z,1032.41
2017-02-15T06:55:03.014Z,1032.5
2017-02-15T07:00:03.271Z,1032.5
2017-02-15T07:05:03.165Z,1032.54
2017-02-15T07:10:03.178Z,1032.54
2017-02-15T07:15:03.125Z,1032.55
2017-02-15T07:20:03.342Z,1032.64
2017-02-15T07:25:03.686Z,1032.71
2017-02-15T07:30:02.765Z,1032.71
2017-02-15T07:35:03.714Z,1032.85
2017-02-15T07:40:03.626Z,1032.93
2017-02-15T07:45:03.391Z,1032.97
2017-02-15T07:50:03.378Z,1033
2017-02-15T07:55:03.230Z,1032.98
2017-02-15T08:00:03.117Z,1033
2017-02-15T08:05:03.283Z,1033.02
2017-02-15T08:10:03.430Z,1033
2017-02-15T08:15:03.370Z,1033.01
2017-02-15T08:20:03.080Z,1033.08
2017-02-15T08:25:02.968Z,1033.11
2017-02-15T08:30:02.864Z,1033.12
2017-02-15T08:35:02.733Z,1033.14
2017-02-15T08:40:02.881Z,1033.13
2017-02-15T08:45:02.861Z,1033.07
2017-02-15T08:50:03.627Z,1033.13
2017-02-15T08:55:03.451Z,1033.3
2017-02-15T09:00:03.348Z,1033.27
2017-02-15T09:05:03.425Z,1033.32
2017-02-15T09:10:03.372Z,1033.34
2017-02-15T09:15:03.262Z,1033.33
2017-02-15T09:20:03.150Z,1033.22
2017-02-15T09:25:03.068Z,1033.25
2017-02-15T09:30:03.055Z,1033.16
2017-02-15T09:35:03.087Z,1033.23
2017-02-15T09:40:03.022Z,1033.25
2017-02-15T09:45:03.160Z,1033.36
2017-02-15T09:50:03.054Z,1033.24
2017-02-15T09:55:03.179Z,1033.21
2017-02-15T10:00:03.212Z,1033.14
2017-02-15T10:05:03.099Z,1033.16
2017-02-15T10:10:02.931Z,1033.1
2017-02-15T10:15:03.737Z,1032.97
2017-02-15T10:20:03.654Z,1033.08
2017-02-15T10:25:02.850Z,1033.07
2017-02-15T10:30:02.811Z,1033.14
2017-02-15T10:35:03.697Z,1033.1
2017-02-15T10:40:03.686Z,1033.13
2017-02-15T10:45:03.682Z,1033.03
2017-02-15T10:50:03.638Z,1033.06
2017-02-15T10:55:03.624Z,1032.95
2017-02-15T11:00:03.544Z,1032.89
2017-02-15T11:05:03.506Z,1032.93
2017-02-15T11:10:03.719Z,1032.75
2017-02-15T11:15:03.103Z,1032.7
2017-02-15T11:20:03.306Z,1032.65
2017-02-15T11:25:03.689Z,1032.53
2017-02-15T11:30:03.204Z,1032.46
2017-02-15T11:35:03.028Z,1032.36
2017-02-15T11:40:03.134Z,1032.25
2017-02-15T11:45:02.844Z,1032.25
2017-02-15T11:50:03.182Z,1032.24
2017-02-15T11:55:02.785Z,1032.21
2017-02-15T12:00:03.260Z,1032.13
2017-02-15T12:05:03.367Z,1032.07
2017-02-15T12:10:03.267Z,1032.11
2017-02-15T12:15:03.275Z,1032.11
2017-02-15T12:20:02.858Z,1032.03
2017-02-15T12:25:03.710Z,1031.91
2017-02-15T12:30:03.640Z,1031.83
2017-02-15T12:35:03.246Z,1031.81
2017-02-15T12:40:02.874Z,1031.68
2017-02-15T12:45:03.697Z,1031.68
2017-02-15T12:50:03.288Z,1031.67
2017-02-15T12:55:03.068Z,1031.65
2017-02-15T13:00:02.803Z,1031.54
2017-02-15T13:05:03.429Z,1031.41
2017-02-15T13:10:03.239Z,1031.41
2017-02-15T13:15:02.861Z,1031.43
2017-02-15T13:20:03.378Z,1031.51
2017-02-15T13:25:02.996Z,1031.45
2017-02-15T13:30:02.861Z,1031.43
2017-02-15T13:35:03.863Z,1031.41
2017-02-15T13:40:03.567Z,1031.32
2017-02-15T13:45:03.312Z,1031.34
2017-02-15T13:50:03.273Z,1031.29
2017-02-15T13:55:03.040Z,1031.24
2017-02-15T14:00:02.798Z,1031.2
2017-02-15T14:05:03.716Z,1031.23
2017-02-15T14:10:02.747Z,1031.17
2017-02-15T14:15:03.367Z,1031.14
2017-02-15T14:20:03.136Z,1031.05
2017-02-15T14:25:02.848Z,1031.09
2017-02-15T14:30:03.455Z,1031.12
2017-02-15T14:35:03.008Z,1031.08
2017-02-15T14:40:02.741Z,1031.08
2017-02-15T14:45:03.293Z,1031.03
2017-02-15T14:50:03.296Z,1031.06
2017-02-15T14:55:03.267Z,1030.9
2017-02-15T15:00:03.404Z,1030.9
2017-02-15T15:05:03.576Z,1030.86
2017-02-15T15:10:03.544Z,1030.75
2017-02-15T15:15:03.519Z,1030.68
2017-02-15T15:20:03.614Z,1030.63
2017-02-15T15:25:03.570Z,1030.54
2017-02-15T15:30:03.188Z,1030.42
2017-02-15T15:35:05.202Z,1030.39
2017-02-15T15:40:03.188Z,1030.41
2017-02-15T15:45:02.835Z,1030.37
2017-02-15T15:50:03.505Z,1030.38
2017-02-15T15:55:03.255Z,1030.32
2017-02-15T16:00:03.223Z,1030.33
2017-02-15T16:05:03.601Z,1030.49
2017-02-15T16:10:03.350Z,1030.58
2017-02-15T16:15:03.054Z,1030.58
2017-02-15T16:20:02.828Z,1030.63
2017-02-15T16:25:03.920Z,1030.58
2017-02-15T16:30:03.714Z,1030.58
2017-02-15T16:35:03.268Z,1030.62
2017-02-15T16:40:03.433Z,1030.59
2017-02-15T16:45:03.194Z,1030.62
2017-02-15T16:50:03.409Z,1030.53
2017-02-15T16:55:03.112Z,1030.55
2017-02-15T17:00:03.142Z,1030.51
2017-02-15T17:05:03.478Z,1030.52
2017-02-15T17:10:03.029Z,1030.53
2017-02-15T17:15:03.175Z,1030.58
2017-02-15T17:20:03.502Z,1030.65
2017-02-15T17:25:03.597Z,1030.68
2017-02-15T17:30:03.171Z,1030.63
2017-02-15T17:35:03.280Z,1030.64
2017-02-15T17:40:02.993Z,1030.71
2017-02-15T17:45:02.962Z,1030.66
2017-02-15T17:50:03.641Z,1030.7
2017-02-15T17:55:03.516Z,1030.65
2017-02-15T18:00:03.191Z,1030.62
2017-02-15T18:05:03.530Z,1030.58
2017-02-15T18:10:03.020Z,1030.57
2017-02-15T18:15:03.151Z,1030.51
2017-02-15T18:20:03.587Z,1030.54
2017-02-15T18:25:03.526Z,1030.46
2017-02-15T18:30:02.912Z,1030.46
2017-02-15T18:35:03.194Z,1030.38
2017-02-15T18:40:02.857Z,1030.44
2017-02-15T18:45:03.802Z,1030.37
2017-02-15T18:50:02.696Z,1030.35
2017-02-15T18:55:03.725Z,1030.37
2017-02-15T19:00:03.652Z,1030.38
2017-02-15T19:05:03.344Z,1030.38
2017-02-15T19:10:03.628Z,1030.43
2017-02-15T19:15:03.398Z,1030.4
2017-02-15T19:20:02.845Z,1030.41
2017-02-15T19:25:03.600Z,1030.45
2017-02-15T19:30:03.603Z,1030.4
2017-02-15T19:35:03.682Z,1030.38
2017-02-15T19:40:03.260Z,1030.43
2017-02-15T19:45:03.706Z,1030.49
2017-02-15T19:50:03.659Z,1030.45
2017-02-15T19:55:03.692Z,1030.57
2017-02-15T20:00:03.649Z,1030.57
2017-02-15T20:05:03.626Z,1030.63
2017-02-15T20:10:03.225Z,1030.61
2017-02-15T20:15:03.362Z,1030.61
2017-02-15T20:20:02.970Z,1030.63
2017-02-15T20:25:03.291Z,1030.71
2017-02-15T20:30:03.464Z,1030.65
2017-02-15T20:35:03.171Z,1030.82
2017-02-15T20:40:02.810Z,1030.83
2017-02-15T20:45:02.991Z,1030.73
2017-02-15T20:50:02.972Z,1030.68
2017-02-15T20:55:03.367Z,1030.77
2017-02-15T21:00:03.081Z,1030.75
2017-02-15T21:05:03.378Z,1030.82
2017-02-15T21:10:02.768Z,1030.87
2017-02-15T21:15:03.681Z,1030.84
2017-02-15T21:20:02.872Z,1030.85
2017-02-15T21:25:02.817Z,1030.82
2017-02-15T21:30:03.090Z,1030.88
2017-02-15T21:35:03.074Z,1030.84
2017-02-15T21:40:03.038Z,1030.8
2017-02-15T21:45:03.091Z,1030.74
2017-02-15T21:50:03.052Z,1030.74
2017-02-15T21:55:03.053Z,1030.78
2017-02-15T22:00:03.228Z,1030.69
2017-02-15T22:05:03.068Z,1030.68
2017-02-15T22:10:03.031Z,1030.69
2017-02-15T22:15:02.850Z,1030.68
2017-02-15T22:20:03.036Z,1030.6
2017-02-15T22:25:02.911Z,1030.6
2017-02-15T22:30:02.867Z,1030.6
2017-02-15T22:35:02.746Z,1030.54
2017-02-15T22:40:02.776Z,1030.54
2017-02-15T22:45:03.582Z,1030.53
2017-02-15T22:50:03.497Z,1030.59
2017-02-15T22:55:03.661Z,1030.55
2017-02-15T23:00:03.437Z,1030.55
2017-02-15T23:05:03.283Z,1030.52
2017-02-15T23:10:03.225Z,1030.57
2017-02-15T23:15:03.283Z,1030.58
2017-02-15T23:20:03.385Z,1030.66
2017-02-15T23:25:03.197Z,1030.68
2017-02-15T23:30:03.285Z,1030.72
2017-02-15T23:35:03.165Z,1030.68
2017-02-15T23:40:03.119Z,1030.74
2017-02-15T23:45:03.005Z,1030.83
2017-02-15T23:50:02.753Z,1030.85
2017-02-15T23:55:02.954Z,1030.85
